sensor_id;sensor_type;location;lat;lon;timestamp;pressure;altitude;pressure_sealevel;temperature;humidity
20043;BME280;10182;52.896;6.496;2023-06-01T00:01:52;102361.59;;;10.82;100.00
20043;BME280;10182;52.896;6.496;2023-06-01T00:06:53;102358.19;;;10.79;100.00
20043;BME280;10182;52.896;6.496;2023-06-01T00:12:15;102374.34;;;10.66;100.00
20043;BME280;10182;52.896;6.496;2023-06-01T00:17:19;102360.97;;;10.71;100.00
20043;BME280;10182;52.896;6.496;2023-06-01T00:22:20;102364.34;;;10.79;100.00
20043;BME280;10182;52.896;6.496;2023-06-01T00:27:24;102359.16;;;10.75;100.00
20043;BME280;10182;52.896;6.496;2023-06-01T00:32:27;102360.25;;;10.64;100.00
20043;BME280;10182;52.896;6.496;2023-06-01T00:37:28;102364.00;;;10.54;100.00
20043;BME280;10182;52.896;6.496;2023-06-01T00:42:30;102353.44;;;10.51;100.00
20043;BME280;10182;52.896;6.496;2023-06-01T00:47:39;102355.00;;;10.61;100.00
20043;BME280;10182;52.896;6.496;2023-06-01T00:52:42;102348.81;;;10.62;100.00
20043;BME280;10182;52.896;6.496;2023-06-01T00:57:44;102349.97;;;10.49;100.00
20043;BME280;10182;52.896;6.496;2023-06-01T01:02:48;102351.63;;;10.55;100.00
20043;BME280;10182;52.896;6.496;2023-06-01T01:08:00;102356.16;;;10.48;100.00
20043;BME280;10182;52.896;6.496;2023-06-01T01:13:10;102358.75;;;10.51;100.00
20043;BME280;10182;52.896;6.496;2023-06-01T01:18:21;102356.06;;;10.54;100.00
20043;BME280;10182;52.896;6.496;2023-06-01T01:23:47;102355.16;;;10.55;100.00
20043;BME280;10182;52.896;6.496;2023-06-01T01:28:54;102355.16;;;10.54;100.00
20043;BME280;10182;52.896;6.496;2023-06-01T01:33:59;102353.56;;;10.46;100.00
20043;BME280;10182;52.896;6.496;2023-06-01T01:45:10;102357.72;;;10.58;100.00
20043;BME280;10182;52.896;6.496;2023-06-01T01:50:14;102351.63;;;10.55;100.00
20043;BME280;10182;52.896;6.496;2023-06-01T01:55:17;102357.63;;;10.63;100.00
20043;BME280;10182;52.896;6.496;2023-06-01T02:00:25;102352.34;;;10.61;100.00
20043;BME280;10182;52.896;6.496;2023-06-01T02:05:27;102344.78;;;10.44;100.00
20043;BME280;10182;52.896;6.496;2023-06-01T02:10:29;102339.66;;;10.35;100.00
20043;BME280;10182;52.896;6.496;2023-06-01T02:15:32;102340.44;;;10.39;100.00
20043;BME280;10182;52.896;6.496;2023-06-01T02:20:34;102328.19;;;10.35;100.00
20043;BME280;10182;52.896;6.496;2023-06-01T02:25:35;102319.38;;;10.32;100.00
20043;BME280;10182;52.896;6.496;2023-06-01T02:30:38;102323.78;;;10.35;100.00
20043;BME280;10182;52.896;6.496;2023-06-01T02:35:40;102323.75;;;10.37;100.00
20043;BME280;10182;52.896;6.496;2023-06-01T02:40:42;102320.28;;;10.31;100.00
20043;BME280;10182;52.896;6.496;2023-06-01T02:45:45;102315.72;;;10.40;100.00
20043;BME280;10182;52.896;6.496;2023-06-01T02:50:47;102319.66;;;10.19;100.00
20043;BME280;10182;52.896;6.496;2023-06-01T02:55:49;102319.66;;;10.19;100.00
20043;BME280;10182;52.896;6.496;2023-06-01T03:00:52;102309.97;;;10.18;100.00
20043;BME280;10182;52.896;6.496;2023-06-01T03:05:54;102306.44;;;10.17;100.00
20043;BME280;10182;52.896;6.496;2023-06-01T03:10:55;102310.66;;;10.27;100.00
20043;BME280;10182;52.896;6.496;2023-06-01T03:15:58;102294.84;;;10.23;100.00
20043;BME280;10182;52.896;6.496;2023-06-01T03:21:00;102294.81;;;10.24;100.00
20043;BME280;10182;52.896;6.496;2023-06-01T03:26:02;102304.41;;;10.30;100.00
20043;BME280;10182;52.896;6.496;2023-06-01T03:31:06;102309.13;;;10.14;100.00
20043;BME280;10182;52.896;6.496;2023-06-01T03:36:11;102302.00;;;10.18;100.00
20043;BME280;10182;52.896;6.496;2023-06-01T03:41:13;102294.69;;;10.30;100.00
20043;BME280;10182;52.896;6.496;2023-06-01T03:46:16;102284.88;;;10.37;100.00
20043;BME280;10182;52.896;6.496;2023-06-01T03:51:18;102294.59;;;10.37;100.00
20043;BME280;10182;52.896;6.496;2023-06-01T03:56:19;102294.53;;;10.40;100.00
20043;BME280;10182;52.896;6.496;2023-06-01T04:01:23;102301.53;;;10.42;100.00
20043;BME280;10182;52.896;6.496;2023-06-01T04:06:24;102287.50;;;10.37;100.00
20043;BME280;10182;52.896;6.496;2023-06-01T04:11:29;102287.41;;;10.43;100.00
20043;BME280;10182;52.896;6.496;2023-06-01T04:16:32;102284.81;;;10.40;100.00
20043;BME280;10182;52.896;6.496;2023-06-01T04:21:34;102275.66;;;10.55;100.00
20043;BME280;10182;52.896;6.496;2023-06-01T04:26:37;102276.63;;;10.51;100.00
20043;BME280;10182;52.896;6.496;2023-06-01T04:31:40;102275.72;;;10.52;100.00
20043;BME280;10182;52.896;6.496;2023-06-01T04:36:41;102281.06;;;10.50;100.00
20043;BME280;10182;52.896;6.496;2023-06-01T04:41:44;102282.00;;;10.48;100.00
20043;BME280;10182;52.896;6.496;2023-06-01T04:46:48;102283.69;;;10.50;100.00
20043;BME280;10182;52.896;6.496;2023-06-01T04:51:50;102283.75;;;10.49;100.00
20043;BME280;10182;52.896;6.496;2023-06-01T04:56:52;102290.81;;;10.48;100.00
20043;BME280;10182;52.896;6.496;2023-06-01T05:01:55;102288.03;;;10.55;100.00
20043;BME280;10182;52.896;6.496;2023-06-01T05:06:56;102287.13;;;10.56;100.00
20043;BME280;10182;52.896;6.496;2023-06-01T05:11:58;102279.25;;;10.53;100.00
20043;BME280;10182;52.896;6.496;2023-06-01T05:17:01;102288.38;;;10.39;100.00
20043;BME280;10182;52.896;6.496;2023-06-01T05:22:03;102292.06;;;10.29;100.00
20043;BME280;10182;52.896;6.496;2023-06-01T05:27:05;102300.63;;;10.43;100.00
20043;BME280;10182;52.896;6.496;2023-06-01T05:32:09;102293.59;;;10.42;100.00
20043;BME280;10182;52.896;6.496;2023-06-01T05:37:11;102298.06;;;10.39;100.00
20043;BME280;10182;52.896;6.496;2023-06-01T05:42:12;102296.28;;;10.41;100.00
20043;BME280;10182;52.896;6.496;2023-06-01T05:47:15;102296.97;;;10.49;100.00
20043;BME280;10182;52.896;6.496;2023-06-01T05:52:17;102295.91;;;10.58;100.00
20043;BME280;10182;52.896;6.496;2023-06-01T05:57:19;102293.47;;;10.48;100.00
20043;BME280;10182;52.896;6.496;2023-06-01T06:02:22;102287.06;;;10.59;100.00
20043;BME280;10182;52.896;6.496;2023-06-01T06:07:24;102287.75;;;10.67;100.00
20043;BME280;10182;52.896;6.496;2023-06-01T06:12:25;102288.75;;;10.61;100.00
20043;BME280;10182;52.896;6.496;2023-06-01T06:17:28;102281.91;;;10.51;100.00
20043;BME280;10182;52.896;6.496;2023-06-01T06:22:30;102287.00;;;10.60;100.00
20043;BME280;10182;52.896;6.496;2023-06-01T06:27:32;102285.34;;;10.56;100.00
20043;BME280;10182;52.896;6.496;2023-06-01T06:32:35;102287.81;;;10.64;100.00
20043;BME280;10182;52.896;6.496;2023-06-01T06:37:36;102281.72;;;10.60;100.00
20043;BME280;10182;52.896;6.496;2023-06-01T06:42:38;102293.78;;;10.74;100.00
20043;BME280;10182;52.896;6.496;2023-06-01T06:47:41;102283.31;;;10.69;100.00
20043;BME280;10182;52.896;6.496;2023-06-01T06:52:45;102295.66;;;10.69;100.00
20043;BME280;10182;52.896;6.496;2023-06-01T06:57:47;102297.06;;;10.85;100.00
20043;BME280;10182;52.896;6.496;2023-06-01T07:02:50;102294.34;;;10.88;100.00
20043;BME280;10182;52.896;6.496;2023-06-01T07:07:52;102290.72;;;10.92;100.00
20043;BME280;10182;52.896;6.496;2023-06-01T07:12:54;102291.41;;;11.00;100.00
20043;BME280;10182;52.896;6.496;2023-06-01T07:17:57;102290.47;;;11.01;100.00
20043;BME280;10182;52.896;6.496;2023-06-01T07:22:58;102293.78;;;11.13;100.00
20043;BME280;10182;52.896;6.496;2023-06-01T07:28:00;102287.31;;;11.23;100.00
20043;BME280;10182;52.896;6.496;2023-06-01T07:33:08;102289.88;;;11.28;100.00
20043;BME280;10182;52.896;6.496;2023-06-01T07:38:10;102285.16;;;11.39;100.00
20043;BME280;10182;52.896;6.496;2023-06-01T07:43:12;102281.69;;;11.35;100.00
20043;BME280;10182;52.896;6.496;2023-06-01T07:48:15;102286.69;;;11.48;100.00
20043;BME280;10182;52.896;6.496;2023-06-01T07:53:17;102276.28;;;11.40;100.00
20043;BME280;10182;52.896;6.496;2023-06-01T07:58:19;102282.22;;;11.50;100.00
20043;BME280;10182;52.896;6.496;2023-06-01T08:03:22;102282.22;;;11.50;100.00
20043;BME280;10182;52.896;6.496;2023-06-01T08:08:26;102283.78;;;11.57;100.00
20043;BME280;10182;52.896;6.496;2023-06-01T08:13:27;102282.72;;;11.64;100.00
20043;BME280;10182;52.896;6.496;2023-06-01T08:18:31;102280.63;;;11.77;100.00
20043;BME280;10182;52.896;6.496;2023-06-01T08:23:32;102277.72;;;11.85;100.00
20043;BME280;10182;52.896;6.496;2023-06-01T08:28:34;102279.31;;;11.92;100.00
20043;BME280;10182;52.896;6.496;2023-06-01T08:33:39;102275.47;;;12.04;100.00
20043;BME280;10182;52.896;6.496;2023-06-01T08:38:41;102273.69;;;12.05;100.00
20043;BME280;10182;52.896;6.496;2023-06-01T08:43:43;102273.75;;;12.03;100.00
20043;BME280;10182;52.896;6.496;2023-06-01T08:48:53;102263.41;;;11.92;100.00
20043;BME280;10182;52.896;6.496;2023-06-01T08:53:57;102263.34;;;11.94;100.00
20043;BME280;10182;52.896;6.496;2023-06-01T08:59:01;102270.81;;;12.12;100.00
20043;BME280;10182;52.896;6.496;2023-06-01T09:04:05;102262.66;;;12.48;100.00
20043;BME280;10182;52.896;6.496;2023-06-01T09:09:08;102251.84;;;12.55;100.00
20043;BME280;10182;52.896;6.496;2023-06-01T09:14:23;102253.28;;;12.36;100.00
20043;BME280;10182;52.896;6.496;2023-06-01T09:19:40;102258.41;;;12.13;100.00
20043;BME280;10182;52.896;6.496;2023-06-01T09:24:55;102256.00;;;12.04;100.00
20043;BME280;10182;52.896;6.496;2023-06-01T09:29:57;102252.88;;;11.89;100.00
20043;BME280;10182;52.896;6.496;2023-06-01T09:35:01;102252.88;;;11.88;100.00
20043;BME280;10182;52.896;6.496;2023-06-01T09:40:16;102255.53;;;11.89;100.00
20043;BME280;10182;52.896;6.496;2023-06-01T09:45:19;102250.81;;;12.00;100.00
20043;BME280;10182;52.896;6.496;2023-06-01T09:50:37;102248.91;;;12.06;100.00
20043;BME280;10182;52.896;6.496;2023-06-01T09:55:56;102250.84;;;11.99;100.00
20043;BME280;10182;52.896;6.496;2023-06-01T10:00:59;102239.25;;;11.68;100.00
20043;BME280;10182;52.896;6.496;2023-06-01T10:06:04;102252.00;;;11.56;100.00
20043;BME280;10182;52.896;6.496;2023-06-01T10:11:07;102241.13;;;11.65;100.00
20043;BME280;10182;52.896;6.496;2023-06-01T10:16:10;102247.06;;;11.75;100.00
20043;BME280;10182;52.896;6.496;2023-06-01T10:21:14;102247.34;;;11.97;100.00
20043;BME280;10182;52.896;6.496;2023-06-01T10:26:17;102229.41;;;12.05;100.00
20043;BME280;10182;52.896;6.496;2023-06-01T10:31:37;102232.75;;;12.12;100.00
20043;BME280;10182;52.896;6.496;2023-06-01T10:37:24;102237.38;;;12.05;100.00
20043;BME280;10182;52.896;6.496;2023-06-01T10:42:39;102232.22;;;12.00;100.00
20043;BME280;10182;52.896;6.496;2023-06-01T10:47:45;102230.91;;;12.15;100.00
20043;BME280;10182;52.896;6.496;2023-06-01T10:52:49;102226.53;;;12.13;100.00
20043;BME280;10182;52.896;6.496;2023-06-01T10:57:52;102215.28;;;12.34;100.00
20043;BME280;10182;52.896;6.496;2023-06-01T11:03:13;102217.03;;;12.34;100.00
20043;BME280;10182;52.896;6.496;2023-06-01T11:08:56;102213.19;;;12.44;100.00
20043;BME280;10182;52.896;6.496;2023-06-01T11:14:07;102205.94;;;12.49;100.00
20043;BME280;10182;52.896;6.496;2023-06-01T11:19:09;102210.03;;;12.60;100.00
20043;BME280;10182;52.896;6.496;2023-06-01T11:24:13;102202.97;;;12.60;100.00
20043;BME280;10182;52.896;6.496;2023-06-01T11:29:16;102213.09;;;12.76;100.00
20043;BME280;10182;52.896;6.496;2023-06-01T11:34:28;102215.63;;;12.79;100.00
20043;BME280;10182;52.896;6.496;2023-06-01T11:39:33;102208.53;;;13.06;100.00
20043;BME280;10182;52.896;6.496;2023-06-01T11:44:36;102200.97;;;12.94;100.00
20043;BME280;10182;52.896;6.496;2023-06-01T11:49:42;102199.47;;;13.12;100.00
20043;BME280;10182;52.896;6.496;2023-06-01T11:54:46;102204.41;;;13.23;100.00
20043;BME280;10182;52.896;6.496;2023-06-01T11:59:49;102203.69;;;13.19;100.00
20043;BME280;10182;52.896;6.496;2023-06-01T12:04:55;102193.53;;;13.03;100.00
20043;BME280;10182;52.896;6.496;2023-06-01T12:09:59;102199.56;;;13.09;100.00
20043;BME280;10182;52.896;6.496;2023-06-01T12:15:02;102201.41;;;13.07;100.00
20043;BME280;10182;52.896;6.496;2023-06-01T12:20:05;102198.31;;;12.94;100.00
20043;BME280;10182;52.896;6.496;2023-06-01T12:25:09;102200.53;;;12.81;100.00
20043;BME280;10182;52.896;6.496;2023-06-01T12:30:20;102191.16;;;12.96;100.00
20043;BME280;10182;52.896;6.496;2023-06-01T12:35:22;102186.41;;;13.06;100.00
20043;BME280;10182;52.896;6.496;2023-06-01T12:40:26;102181.75;;;13.11;100.00
20043;BME280;10182;52.896;6.496;2023-06-01T12:45:34;102189.97;;;13.30;100.00
20043;BME280;10182;52.896;6.496;2023-06-01T12:50:43;102189.88;;;13.33;100.00
20043;BME280;10182;52.896;6.496;2023-06-01T12:55:47;102188.94;;;13.35;100.00
20043;BME280;10182;52.896;6.496;2023-06-01T13:00:48;102188.31;;;13.27;100.00
20043;BME280;10182;52.896;6.496;2023-06-01T13:05:50;102193.63;;;13.27;100.00
20043;BME280;10182;52.896;6.496;2023-06-01T13:10:53;102183.78;;;13.29;100.00
20043;BME280;10182;52.896;6.496;2023-06-01T13:15:55;102185.41;;;13.33;100.00
20043;BME280;10182;52.896;6.496;2023-06-01T13:20:57;102186.22;;;13.37;100.00
20043;BME280;10182;52.896;6.496;2023-06-01T13:26:00;102191.66;;;13.32;100.00
20043;BME280;10182;52.896;6.496;2023-06-01T13:31:01;102198.38;;;13.17;100.00
20043;BME280;10182;52.896;6.496;2023-06-01T13:36:04;102197.13;;;13.02;100.00
20043;BME280;10182;52.896;6.496;2023-06-01T13:41:08;102198.91;;;13.02;100.00
20043;BME280;10182;52.896;6.496;2023-06-01T13:46:09;102200.19;;;12.90;100.00
20043;BME280;10182;52.896;6.496;2023-06-01T13:51:12;102190.28;;;12.95;100.00
20043;BME280;10182;52.896;6.496;2023-06-01T13:56:15;102183.72;;;13.06;100.00
20043;BME280;10182;52.896;6.496;2023-06-01T14:01:17;102187.81;;;13.16;100.00
20043;BME280;10182;52.896;6.496;2023-06-01T14:06:19;102172.22;;;13.05;100.00
20043;BME280;10182;52.896;6.496;2023-06-01T14:11:22;102165.16;;;13.04;100.00
20043;BME280;10182;52.896;6.496;2023-06-01T14:16:24;102182.34;;;12.94;100.00
20043;BME280;10182;52.896;6.496;2023-06-01T14:21:25;102180.22;;;12.78;100.00
20043;BME280;10182;52.896;6.496;2023-06-01T14:26:30;102172.13;;;12.81;100.00
20043;BME280;10182;52.896;6.496;2023-06-01T14:31:32;102171.28;;;12.79;100.00
20043;BME280;10182;52.896;6.496;2023-06-01T14:36:33;102165.03;;;12.55;100.00
20043;BME280;10182;52.896;6.496;2023-06-01T14:41:38;102165.03;;;12.55;100.00
20043;BME280;10182;52.896;6.496;2023-06-01T14:46:41;102158.06;;;12.51;100.00
20043;BME280;10182;52.896;6.496;2023-06-01T14:51:43;102150.84;;;12.55;100.00
20043;BME280;10182;52.896;6.496;2023-06-01T14:56:46;102157.44;;;12.69;100.00
20043;BME280;10182;52.896;6.496;2023-06-01T15:01:47;102144.63;;;12.82;100.00
20043;BME280;10182;52.896;6.496;2023-06-01T15:06:49;102131.16;;;12.87;100.00
20043;BME280;10182;52.896;6.496;2023-06-01T15:11:52;102137.75;;;12.75;100.00
20043;BME280;10182;52.896;6.496;2023-06-01T15:16:54;102128.72;;;12.81;100.00
20043;BME280;10182;52.896;6.496;2023-06-01T15:21:56;102132.50;;;12.74;100.00
20043;BME280;10182;52.896;6.496;2023-06-01T15:26:59;102130.84;;;12.96;100.00
20043;BME280;10182;52.896;6.496;2023-06-01T15:32:01;102137.56;;;12.81;100.00
20043;BME280;10182;52.896;6.496;2023-06-01T15:37:03;102135.97;;;12.76;100.00
20043;BME280;10182;52.896;6.496;2023-06-01T15:42:08;102142.28;;;12.73;100.00
20043;BME280;10182;52.896;6.496;2023-06-01T15:47:10;102140.56;;;12.70;100.00
20043;BME280;10182;52.896;6.496;2023-06-01T15:52:12;102143.66;;;12.58;100.00
20043;BME280;10182;52.896;6.496;2023-06-01T15:57:15;102129.56;;;12.55;100.00
20043;BME280;10182;52.896;6.496;2023-06-01T16:02:17;102128.06;;;12.47;100.00
20043;BME280;10182;52.896;6.496;2023-06-01T16:07:19;102132.13;;;12.31;100.00
20043;BME280;10182;52.896;6.496;2023-06-01T16:12:22;102122.28;;;12.34;100.00
20043;BME280;10182;52.896;6.496;2023-06-01T16:17:23;102124.88;;;12.36;100.00
20043;BME280;10182;52.896;6.496;2023-06-01T16:22:25;102118.53;;;12.40;100.00
20043;BME280;10182;52.896;6.496;2023-06-01T16:27:29;102119.28;;;12.44;100.00
20043;BME280;10182;52.896;6.496;2023-06-01T16:32:30;102115.00;;;12.40;100.00
20043;BME280;10182;52.896;6.496;2023-06-01T16:37:32;102112.91;;;12.23;100.00
20043;BME280;10182;52.896;6.496;2023-06-01T16:42:35;102103.19;;;12.22;100.00
20043;BME280;10182;52.896;6.496;2023-06-01T16:47:37;102096.97;;;12.23;100.00
20043;BME280;10182;52.896;6.496;2023-06-01T16:52:38;102092.50;;;12.25;100.00
20043;BME280;10182;52.896;6.496;2023-06-01T16:57:42;102089.78;;;12.26;100.00
20043;BME280;10182;52.896;6.496;2023-06-01T17:02:43;102096.97;;;12.23;100.00
20043;BME280;10182;52.896;6.496;2023-06-01T17:07:45;102098.09;;;12.15;100.00
20043;BME280;10182;52.896;6.496;2023-06-01T17:12:48;102097.13;;;12.18;100.00
20043;BME280;10182;52.896;6.496;2023-06-01T17:17:50;102087.84;;;12.03;100.00
20043;BME280;10182;52.896;6.496;2023-06-01T17:22:52;102101.38;;;11.94;100.00
20043;BME280;10182;52.896;6.496;2023-06-01T17:27:55;102096.13;;;11.92;100.00
20043;BME280;10182;52.896;6.496;2023-06-01T17:32:58;102096.25;;;11.88;100.00
20043;BME280;10182;52.896;6.496;2023-06-01T17:38:00;102091.81;;;11.88;100.00
20043;BME280;10182;52.896;6.496;2023-06-01T17:43:03;102101.84;;;11.78;100.00
20043;BME280;10182;52.896;6.496;2023-06-01T17:48:05;102098.50;;;11.72;100.00
20043;BME280;10182;52.896;6.496;2023-06-01T17:53:06;102092.47;;;11.66;100.00
20043;BME280;10182;52.896;6.496;2023-06-01T17:58:11;102094.44;;;11.60;100.00
20043;BME280;10182;52.896;6.496;2023-06-01T18:03:13;102088.31;;;11.58;100.00
20043;BME280;10182;52.896;6.496;2023-06-01T18:08:15;102093.69;;;11.55;100.00
20043;BME280;10182;52.896;6.496;2023-06-01T18:13:18;102078.97;;;11.44;100.00
20043;BME280;10182;52.896;6.496;2023-06-01T18:18:20;102080.88;;;11.39;100.00
20043;BME280;10182;52.896;6.496;2023-06-01T18:23:21;102091.28;;;11.45;100.00
20043;BME280;10182;52.896;6.496;2023-06-01T18:28:24;102096.78;;;11.39;100.00
20043;BME280;10182;52.896;6.496;2023-06-01T18:33:26;102094.34;;;11.31;100.00
20043;BME280;10182;52.896;6.496;2023-06-01T18:38:28;102095.53;;;11.21;100.00
20043;BME280;10182;52.896;6.496;2023-06-01T18:43:31;102093.84;;;11.18;100.00
20043;BME280;10182;52.896;6.496;2023-06-01T18:48:32;102097.63;;;11.08;100.00
20043;BME280;10182;52.896;6.496;2023-06-01T18:53:34;102085.38;;;11.04;100.00
20043;BME280;10182;52.896;6.496;2023-06-01T18:58:37;102084.66;;;10.99;100.00
20043;BME280;10182;52.896;6.496;2023-06-01T19:03:39;102083.56;;;11.06;100.00
20043;BME280;10182;52.896;6.496;2023-06-01T19:08:40;102090.91;;;10.96;100.00
20043;BME280;10182;52.896;6.496;2023-06-01T19:13:45;102084.81;;;10.93;100.00
20043;BME280;10182;52.896;6.496;2023-06-01T19:18:48;102082.31;;;10.87;100.00
20043;BME280;10182;52.896;6.496;2023-06-01T19:23:52;102086.06;;;10.78;100.00
20043;BME280;10182;52.896;6.496;2023-06-01T19:28:57;102094.88;;;10.78;100.00
20043;BME280;10182;52.896;6.496;2023-06-01T19:34:03;102097.81;;;10.69;100.00
20043;BME280;10182;52.896;6.496;2023-06-01T19:39:05;102100.44;;;10.69;100.00
20043;BME280;10182;52.896;6.496;2023-06-01T19:44:12;102095.28;;;10.63;100.00
20043;BME280;10182;52.896;6.496;2023-06-01T19:49:14;102096.47;;;10.51;100.00
20043;BME280;10182;52.896;6.496;2023-06-01T19:54:19;102093.63;;;10.59;100.00
20043;BME280;10182;52.896;6.496;2023-06-01T19:59:24;102096.19;;;10.62;100.00
20043;BME280;10182;52.896;6.496;2023-06-01T20:04:26;102097.31;;;10.53;100.00
20043;BME280;10182;52.896;6.496;2023-06-01T20:09:27;102097.13;;;10.61;100.00
20043;BME280;10182;52.896;6.496;2023-06-01T20:14:32;102101.69;;;10.54;100.00
20043;BME280;10182;52.896;6.496;2023-06-01T20:19:34;102090.97;;;10.59;100.00
20043;BME280;10182;52.896;6.496;2023-06-01T20:24:35;102098.09;;;10.57;100.00
20043;BME280;10182;52.896;6.496;2023-06-01T20:29:38;102093.53;;;10.62;100.00
20043;BME280;10182;52.896;6.496;2023-06-01T20:34:41;102088.22;;;10.63;100.00
20043;BME280;10182;52.896;6.496;2023-06-01T20:39:43;102093.59;;;10.60;100.00
20043;BME280;10182;52.896;6.496;2023-06-01T20:44:46;102087.56;;;10.55;100.00
20043;BME280;10182;52.896;6.496;2023-06-01T20:49:48;102094.38;;;10.64;100.00
20043;BME280;10182;52.896;6.496;2023-06-01T20:54:50;102093.53;;;10.62;100.00
20043;BME280;10182;52.896;6.496;2023-06-01T20:59:53;102086.53;;;10.61;100.00
20043;BME280;10182;52.896;6.496;2023-06-01T21:04:55;102082.22;;;10.57;100.00
20043;BME280;10182;52.896;6.496;2023-06-01T21:09:56;102081.31;;;10.56;100.00
20043;BME280;10182;52.896;6.496;2023-06-01T21:14:59;102076.88;;;10.58;100.00
20043;BME280;10182;52.896;6.496;2023-06-01T21:20:01;102075.34;;;10.48;100.00
20043;BME280;10182;52.896;6.496;2023-06-01T21:25:03;102083.22;;;10.51;100.00
20043;BME280;10182;52.896;6.496;2023-06-01T21:30:08;102087.69;;;10.49;100.00
20043;BME280;10182;52.896;6.496;2023-06-01T21:35:10;102084.28;;;10.44;100.00
20043;BME280;10182;52.896;6.496;2023-06-01T21:40:12;102095.00;;;10.39;100.00
20043;BME280;10182;52.896;6.496;2023-06-01T21:45:15;102103.00;;;10.38;100.00
20043;BME280;10182;52.896;6.496;2023-06-01T21:50:17;102096.03;;;10.32;100.00
20043;BME280;10182;52.896;6.496;2023-06-01T21:55:19;102094.38;;;10.28;100.00
20043;BME280;10182;52.896;6.496;2023-06-01T22:00:22;102099.75;;;10.23;100.00
20043;BME280;10182;52.896;6.496;2023-06-01T22:05:24;102095.34;;;10.22;100.00
20043;BME280;10182;52.896;6.496;2023-06-01T22:10:26;102098.22;;;10.14;100.00
20043;BME280;10182;52.896;6.496;2023-06-01T22:15:29;102091.97;;;10.15;100.00
20043;BME280;10182;52.896;6.496;2023-06-01T22:20:31;102102.66;;;10.12;100.00
20043;BME280;10182;52.896;6.496;2023-06-01T22:25:33;102098.44;;;10.04;100.00
20043;BME280;10182;52.896;6.496;2023-06-01T22:30:36;102090.50;;;10.04;100.00
20043;BME280;10182;52.896;6.496;2023-06-01T22:35:38;102088.88;;;9.98;100.00
20043;BME280;10182;52.896;6.496;2023-06-01T22:40:40;102095.88;;;9.99;100.00
20043;BME280;10182;52.896;6.496;2023-06-01T22:45:43;102081.19;;;9.87;100.00
20043;BME280;10182;52.896;6.496;2023-06-01T22:50:45;102083.66;;;9.93;100.00
20043;BME280;10182;52.896;6.496;2023-06-01T22:55:47;102080.94;;;9.98;100.00
20043;BME280;10182;52.896;6.496;2023-06-01T23:00:51;102074.03;;;9.91;100.00
20043;BME280;10182;52.896;6.496;2023-06-01T23:05:52;102085.53;;;9.90;100.00
20043;BME280;10182;52.896;6.496;2023-06-01T23:10:54;102078.56;;;9.84;100.00
20043;BME280;10182;52.896;6.496;2023-06-01T23:15:58;102090.09;;;9.83;100.00
20043;BME280;10182;52.896;6.496;2023-06-01T23:21:02;102092.84;;;9.77;100.00
20043;BME280;10182;52.896;6.496;2023-06-01T23:26:04;102097.38;;;9.73;100.00
20043;BME280;10182;52.896;6.496;2023-06-01T23:31:07;102094.66;;;9.76;100.00
20043;BME280;10182;52.896;6.496;2023-06-01T23:36:09;102096.31;;;9.80;100.00
20043;BME280;10182;52.896;6.496;2023-06-01T23:41:11;102093.66;;;9.80;100.00
20043;BME280;10182;52.896;6.496;2023-06-01T23:46:14;102088.47;;;9.77;100.00
20043;BME280;10182;52.896;6.496;2023-06-01T23:51:16;102088.47;;;9.77;100.00
20043;BME280;10182;52.896;6.496;2023-06-01T23:56:18;102088.53;;;9.73;100.00
